createdAt,value
2016-11-03T00:00:24.508Z,0
2016-11-03T00:01:05.161Z,0
2016-11-03T00:01:45.847Z,0
2016-11-03T00:02:26.562Z,0
2016-11-03T00:03:07.247Z,0
2016-11-03T00:03:47.920Z,0
2016-11-03T00:04:28.614Z,0
2016-11-03T00:05:09.332Z,0
2016-11-03T00:05:50.014Z,0
2016-11-03T00:06:30.697Z,0
2016-11-03T00:07:11.377Z,0
2016-11-03T00:07:52.012Z,0
2016-11-03T00:08:32.651Z,0
2016-11-03T00:09:13.315Z,0
2016-11-03T00:09:53.945Z,0
2016-11-03T00:10:34.624Z,0
2016-11-03T00:11:15.299Z,0
2016-11-03T00:11:56.033Z,0
2016-11-03T00:12:36.679Z,0
2016-11-03T00:13:17.374Z,0
2016-11-03T00:13:58.044Z,0
2016-11-03T00:14:38.723Z,0
2016-11-03T00:15:19.432Z,0
2016-11-03T00:16:00.091Z,0
2016-11-03T00:16:40.756Z,0
2016-11-03T00:17:21.405Z,0
2016-11-03T00:18:02.108Z,0
2016-11-03T00:18:42.787Z,0
2016-11-03T00:19:23.476Z,0
2016-11-03T00:20:04.192Z,0
2016-11-03T00:20:44.848Z,0
2016-11-03T00:21:25.556Z,0
2016-11-03T00:22:06.206Z,0
2016-11-03T00:22:46.871Z,0
2016-11-03T00:23:27.513Z,0
2016-11-03T00:24:08.215Z,0
2016-11-03T00:24:48.895Z,0
2016-11-03T00:25:29.620Z,0
2016-11-03T00:26:10.286Z,0
2016-11-03T00:26:51.900Z,0
2016-11-03T00:27:32.586Z,0
2016-11-03T00:28:13.238Z,0
2016-11-03T00:28:53.898Z,0
2016-11-03T00:29:34.559Z,0
2016-11-03T00:30:15.231Z,0
2016-11-03T00:30:55.871Z,0
2016-11-03T00:31:37.283Z,0
2016-11-03T00:32:17.951Z,0
2016-11-03T00:32:58.619Z,0
2016-11-03T00:33:39.322Z,0
2016-11-03T00:34:20.036Z,0
2016-11-03T00:35:00.753Z,0
2016-11-03T00:35:41.449Z,0
2016-11-03T00:36:22.124Z,0
2016-11-03T00:37:02.781Z,0
2016-11-03T00:37:43.505Z,0
2016-11-03T00:38:24.208Z,0
2016-11-03T00:39:04.875Z,0
2016-11-03T00:39:45.567Z,0
2016-11-03T00:40:26.235Z,0
2016-11-03T00:41:06.877Z,0
2016-11-03T00:41:47.546Z,0
2016-11-03T00:42:28.200Z,0
2016-11-03T00:43:08.872Z,0
2016-11-03T00:43:49.539Z,0
2016-11-03T00:44:30.256Z,0
2016-11-03T00:45:10.946Z,0
2016-11-03T00:45:51.648Z,0
2016-11-03T00:46:32.306Z,0
2016-11-03T00:47:12.954Z,0
2016-11-03T00:47:53.614Z,0
2016-11-03T00:48:34.314Z,0
2016-11-03T00:49:15.041Z,0
2016-11-03T00:49:55.723Z,0
2016-11-03T00:50:37.276Z,0
2016-11-03T00:51:17.090Z,0
2016-11-03T00:51:57.763Z,0
2016-11-03T00:52:38.422Z,0
2016-11-03T00:53:19.124Z,0
2016-11-03T00:53:59.788Z,0
2016-11-03T00:54:40.478Z,0
2016-11-03T00:55:21.148Z,0
2016-11-03T00:56:01.853Z,0
2016-11-03T00:56:42.563Z,0
2016-11-03T00:57:23.236Z,0
2016-11-03T00:58:03.946Z,0
2016-11-03T00:58:44.604Z,0
2016-11-03T00:59:25.234Z,0
2016-11-03T01:00:05.899Z,0
2016-11-03T01:00:46.579Z,0
2016-11-03T01:01:27.246Z,0
2016-11-03T01:02:07.896Z,0
2016-11-03T01:02:48.535Z,0
2016-11-03T01:03:29.241Z,0
2016-11-03T01:04:09.910Z,0
2016-11-03T01:04:50.611Z,0
2016-11-03T01:05:31.300Z,0
2016-11-03T01:06:11.984Z,0
2016-11-03T01:06:52.629Z,0
2016-11-03T01:07:33.338Z,0
2016-11-03T01:08:13.992Z,0
2016-11-03T01:08:54.671Z,0
2016-11-03T01:09:35.288Z,0
2016-11-03T01:10:15.984Z,0
2016-11-03T01:10:56.655Z,0
2016-11-03T01:11:37.302Z,0
2016-11-03T01:12:17.948Z,0
2016-11-03T01:12:58.581Z,0
2016-11-03T01:13:39.319Z,0
2016-11-03T01:14:19.983Z,0
2016-11-03T01:15:00.644Z,0
2016-11-03T01:15:41.323Z,0
2016-11-03T01:16:22.031Z,0
2016-11-03T01:17:02.708Z,0
2016-11-03T01:17:43.424Z,0
2016-11-03T01:18:24.160Z,0
2016-11-03T01:19:04.802Z,0
2016-11-03T01:19:45.470Z,0
2016-11-03T01:20:26.175Z,0
2016-11-03T01:21:06.923Z,0
2016-11-03T01:21:47.582Z,0
2016-11-03T01:22:28.294Z,0
2016-11-03T01:23:08.943Z,0
2016-11-03T01:23:49.595Z,0
2016-11-03T01:24:30.248Z,0
2016-11-03T01:25:10.879Z,0
2016-11-03T01:25:51.514Z,0
2016-11-03T01:26:32.154Z,0
2016-11-03T01:27:12.802Z,0
2016-11-03T01:27:53.431Z,0
2016-11-03T01:28:34.053Z,0
2016-11-03T01:29:14.686Z,0
2016-11-03T01:29:55.307Z,0
2016-11-03T01:30:35.940Z,0
2016-11-03T01:31:16.587Z,0
2016-11-03T01:31:57.201Z,0
2016-11-03T01:32:37.848Z,0
2016-11-03T01:33:18.540Z,0
2016-11-03T01:33:59.237Z,0
2016-11-03T01:34:39.908Z,0
2016-11-03T01:35:20.622Z,0
2016-11-03T01:36:01.315Z,0
2016-11-03T01:36:42.008Z,0
2016-11-03T01:37:22.633Z,0
2016-11-03T01:38:03.334Z,0
2016-11-03T01:38:44.006Z,0
2016-11-03T01:39:24.704Z,0
2016-11-03T01:40:05.388Z,0
2016-11-03T01:40:46.097Z,0
2016-11-03T01:41:26.777Z,0
2016-11-03T01:42:07.468Z,0
2016-11-03T01:42:48.171Z,0
2016-11-03T01:43:28.833Z,0
2016-11-03T01:44:09.560Z,0
2016-11-03T01:44:50.247Z,0
2016-11-03T01:45:30.898Z,0
2016-11-03T01:46:11.587Z,0
2016-11-03T01:46:52.293Z,0
2016-11-03T01:47:32.982Z,0
2016-11-03T01:48:13.630Z,0
2016-11-03T01:48:54.348Z,0
2016-11-03T01:49:35.097Z,0
2016-11-03T01:50:15.793Z,0
2016-11-03T01:50:56.494Z,0
2016-11-03T01:51:37.210Z,0
2016-11-03T01:52:17.914Z,0
2016-11-03T01:52:58.607Z,0
2016-11-03T01:53:39.296Z,0
2016-11-03T01:54:20.000Z,0
2016-11-03T01:55:00.681Z,0
2016-11-03T01:55:41.356Z,0
2016-11-03T01:56:22.091Z,0
2016-11-03T01:57:02.810Z,0
2016-11-03T01:57:43.472Z,0
2016-11-03T01:58:24.184Z,0
2016-11-03T01:59:04.855Z,0
2016-11-03T01:59:45.529Z,0
2016-11-03T02:00:26.253Z,0
2016-11-03T02:01:06.921Z,0
2016-11-03T02:01:47.638Z,0
2016-11-03T02:02:28.303Z,0
2016-11-03T02:03:09.001Z,0
2016-11-03T02:03:49.642Z,0
2016-11-03T02:04:30.330Z,0
2016-11-03T02:05:10.979Z,0
2016-11-03T02:05:51.664Z,0
2016-11-03T02:06:32.335Z,0
2016-11-03T02:07:12.999Z,0
2016-11-03T02:07:53.685Z,0
2016-11-03T02:08:34.407Z,0
2016-11-03T02:09:15.095Z,0
2016-11-03T02:09:55.757Z,0
2016-11-03T02:10:36.418Z,0
2016-11-03T02:11:17.157Z,0
2016-11-03T02:11:57.827Z,0
2016-11-03T02:12:38.507Z,0
2016-11-03T02:13:19.203Z,0
2016-11-03T02:13:59.879Z,0
2016-11-03T02:14:40.550Z,0
2016-11-03T02:15:21.263Z,0
2016-11-03T02:16:01.914Z,0
2016-11-03T02:16:42.599Z,0
2016-11-03T02:17:23.275Z,0
2016-11-03T02:18:04.007Z,0
2016-11-03T02:18:44.697Z,0
2016-11-03T02:19:25.406Z,0
2016-11-03T02:20:06.090Z,0
2016-11-03T02:20:46.775Z,0
2016-11-03T02:21:27.472Z,0
2016-11-03T02:22:08.176Z,0
2016-11-03T02:22:48.793Z,0
2016-11-03T02:23:29.515Z,0
2016-11-03T02:24:10.184Z,0
2016-11-03T02:24:50.861Z,0
2016-11-03T02:25:31.549Z,0
2016-11-03T02:26:12.259Z,0
2016-11-03T02:26:52.968Z,0
2016-11-03T02:27:33.636Z,0
2016-11-03T02:28:14.382Z,0
2016-11-03T02:28:55.100Z,0
2016-11-03T02:29:35.749Z,0
2016-11-03T02:30:16.456Z,0
2016-11-03T02:30:57.114Z,0
2016-11-03T02:31:37.815Z,0
2016-11-03T02:32:18.489Z,0
2016-11-03T02:32:59.132Z,0
2016-11-03T02:33:39.795Z,0
2016-11-03T02:34:20.506Z,0
2016-11-03T02:35:01.200Z,0
2016-11-03T02:35:41.914Z,0
2016-11-03T02:36:22.530Z,0
2016-11-03T02:37:03.242Z,0
2016-11-03T02:37:43.946Z,0
2016-11-03T02:38:24.642Z,0
2016-11-03T02:39:05.346Z,0
2016-11-03T02:39:46.066Z,0
2016-11-03T02:40:26.759Z,0
2016-11-03T02:41:07.458Z,0
2016-11-03T02:41:48.188Z,0
2016-11-03T02:42:28.818Z,0
2016-11-03T02:43:09.552Z,0
2016-11-03T02:43:50.228Z,0
2016-11-03T02:44:30.922Z,0
2016-11-03T02:45:11.625Z,0
2016-11-03T02:45:52.257Z,0
2016-11-03T02:46:32.929Z,0
2016-11-03T02:47:13.562Z,0
2016-11-03T02:47:54.240Z,0
2016-11-03T02:48:34.918Z,0
2016-11-03T02:49:15.593Z,0
2016-11-03T02:49:56.280Z,0
2016-11-03T02:50:36.996Z,0
2016-11-03T02:51:17.695Z,0
2016-11-03T02:51:58.345Z,0
2016-11-03T02:52:39.016Z,0
2016-11-03T02:53:19.709Z,0
2016-11-03T02:54:00.336Z,0
2016-11-03T02:54:41.071Z,0
2016-11-03T02:55:21.769Z,0
2016-11-03T02:56:02.429Z,0
2016-11-03T02:56:43.148Z,0
2016-11-03T02:57:23.801Z,0
2016-11-03T02:58:04.451Z,0
2016-11-03T02:58:45.169Z,0
2016-11-03T02:59:25.814Z,0
2016-11-03T03:00:06.501Z,0
2016-11-03T03:00:47.178Z,0
2016-11-03T03:01:27.878Z,0
2016-11-03T03:02:08.528Z,0
2016-11-03T03:02:49.170Z,0
2016-11-03T03:03:29.861Z,0
2016-11-03T03:04:10.516Z,0
2016-11-03T03:04:51.210Z,0
2016-11-03T03:05:31.905Z,0
2016-11-03T03:06:12.556Z,0
2016-11-03T03:06:53.239Z,0
2016-11-03T03:07:33.893Z,0
2016-11-03T03:08:14.607Z,0
2016-11-03T03:08:55.251Z,0
2016-11-03T03:09:35.957Z,0
2016-11-03T03:10:16.647Z,0
2016-11-03T03:10:57.323Z,0
2016-11-03T03:11:38.002Z,0
2016-11-03T03:12:18.699Z,0
2016-11-03T03:12:59.379Z,0
2016-11-03T03:13:40.053Z,0
2016-11-03T03:14:20.714Z,0
2016-11-03T03:15:01.381Z,0
2016-11-03T03:15:42.044Z,0
2016-11-03T03:16:22.720Z,0
2016-11-03T03:17:03.416Z,0
2016-11-03T03:17:44.117Z,0
2016-11-03T03:18:24.806Z,0
2016-11-03T03:19:05.528Z,0
2016-11-03T03:19:46.200Z,0
2016-11-03T03:20:26.888Z,0
2016-11-03T03:21:07.564Z,0
2016-11-03T03:21:48.214Z,0
2016-11-03T03:22:28.925Z,0
2016-11-03T03:23:09.583Z,0
2016-11-03T03:23:50.235Z,0
2016-11-03T03:24:30.933Z,0
2016-11-03T03:25:11.632Z,0
2016-11-03T03:25:52.319Z,0
2016-11-03T03:26:33.017Z,0
2016-11-03T03:27:13.689Z,0
2016-11-03T03:27:54.361Z,0
2016-11-03T03:28:35.042Z,0
2016-11-03T03:29:15.761Z,0
2016-11-03T03:29:56.433Z,0
2016-11-03T03:30:37.152Z,0
2016-11-03T03:31:17.909Z,0
2016-11-03T03:31:58.563Z,0
2016-11-03T03:32:39.279Z,0
2016-11-03T03:33:19.974Z,0
2016-11-03T03:34:00.626Z,0
2016-11-03T03:34:41.341Z,0
2016-11-03T03:35:22.013Z,0
2016-11-03T03:36:02.668Z,0
2016-11-03T03:36:43.330Z,0
2016-11-03T03:37:24.037Z,0
2016-11-03T03:38:04.797Z,0
2016-11-03T03:38:45.403Z,0
2016-11-03T03:39:26.064Z,0
2016-11-03T03:40:06.711Z,0
2016-11-03T03:40:47.433Z,0
2016-11-03T03:41:28.095Z,0
2016-11-03T03:42:08.801Z,0
2016-11-03T03:42:49.470Z,0
2016-11-03T03:43:30.132Z,0
2016-11-03T03:44:10.805Z,0
2016-11-03T03:44:51.487Z,0
2016-11-03T03:45:32.176Z,0
2016-11-03T03:46:12.834Z,0
2016-11-03T03:46:53.497Z,0
2016-11-03T03:47:34.174Z,0
2016-11-03T03:48:14.851Z,0
2016-11-03T03:48:55.491Z,0
2016-11-03T03:49:36.157Z,0
2016-11-03T03:50:16.812Z,0
2016-11-03T03:50:57.498Z,0
2016-11-03T03:51:38.212Z,0
2016-11-03T03:52:18.923Z,0
2016-11-03T03:52:59.644Z,0
2016-11-03T03:53:40.338Z,0
2016-11-03T03:54:21.075Z,0
2016-11-03T03:55:01.784Z,0
2016-11-03T03:55:42.449Z,0
2016-11-03T03:56:23.118Z,0
2016-11-03T03:57:03.806Z,0
2016-11-03T03:57:44.472Z,0
2016-11-03T03:58:25.145Z,0
2016-11-03T03:59:05.824Z,0
2016-11-03T03:59:46.512Z,0
2016-11-03T04:00:27.203Z,0
2016-11-03T04:01:07.873Z,0
2016-11-03T04:01:48.563Z,0
2016-11-03T04:02:29.264Z,0
2016-11-03T04:03:09.967Z,0
2016-11-03T04:03:50.669Z,0
2016-11-03T04:04:31.331Z,0
2016-11-03T04:05:12.016Z,0
2016-11-03T04:05:52.671Z,0
2016-11-03T04:06:33.374Z,0
2016-11-03T04:07:14.041Z,0
2016-11-03T04:07:54.754Z,0
2016-11-03T04:08:35.444Z,0
2016-11-03T04:09:16.131Z,0
2016-11-03T04:09:56.821Z,0
2016-11-03T04:10:37.461Z,0
2016-11-03T04:11:18.108Z,0
2016-11-03T04:11:59.619Z,0
2016-11-03T04:12:40.275Z,0
2016-11-03T04:13:20.971Z,0
2016-11-03T04:14:01.636Z,0
2016-11-03T04:14:42.295Z,0
2016-11-03T04:15:22.978Z,0
2016-11-03T04:16:03.626Z,0
2016-11-03T04:16:44.319Z,0
2016-11-03T04:17:25.023Z,0
2016-11-03T04:18:05.681Z,0
2016-11-03T04:18:46.359Z,0
2016-11-03T04:19:27.045Z,0
2016-11-03T04:20:07.752Z,0
2016-11-03T04:20:48.474Z,0
2016-11-03T04:21:29.169Z,0
2016-11-03T04:22:09.878Z,0
2016-11-03T04:22:50.526Z,0
2016-11-03T04:23:31.189Z,0
2016-11-03T04:24:11.872Z,0
2016-11-03T04:24:52.540Z,0
2016-11-03T04:25:33.222Z,0
2016-11-03T04:26:13.901Z,0
2016-11-03T04:26:54.552Z,0
2016-11-03T04:27:35.209Z,0
2016-11-03T04:28:15.887Z,0
2016-11-03T04:28:56.593Z,0
2016-11-03T04:29:37.298Z,0
2016-11-03T04:30:17.992Z,0
2016-11-03T04:30:58.690Z,0
2016-11-03T04:31:39.359Z,0
2016-11-03T04:32:20.049Z,0
2016-11-03T04:33:00.726Z,0
2016-11-03T04:33:41.434Z,0
2016-11-03T04:34:22.110Z,0
2016-11-03T04:35:02.794Z,0
2016-11-03T04:35:43.466Z,0
2016-11-03T04:36:24.147Z,0
2016-11-03T04:37:04.758Z,0
2016-11-03T04:37:45.463Z,0
2016-11-03T04:38:26.122Z,0
2016-11-03T04:39:06.842Z,0
2016-11-03T04:39:47.518Z,0
2016-11-03T04:40:28.243Z,0
2016-11-03T04:41:08.884Z,0
2016-11-03T04:41:49.554Z,0
2016-11-03T04:42:30.234Z,0
2016-11-03T04:43:10.880Z,0
2016-11-03T04:43:51.576Z,0
2016-11-03T04:44:32.295Z,0
2016-11-03T04:45:12.961Z,0
2016-11-03T04:45:53.688Z,0
2016-11-03T04:46:34.355Z,0
2016-11-03T04:47:15.072Z,0
2016-11-03T04:47:55.741Z,0
2016-11-03T04:48:36.388Z,0
2016-11-03T04:49:17.131Z,0
2016-11-03T04:49:57.768Z,0
2016-11-03T04:50:38.444Z,0
2016-11-03T04:51:19.098Z,0
2016-11-03T04:51:59.777Z,0
2016-11-03T04:52:40.502Z,0
2016-11-03T04:53:21.143Z,0
2016-11-03T04:54:01.804Z,0
2016-11-03T04:54:42.522Z,0
2016-11-03T04:55:23.209Z,0
2016-11-03T04:56:03.880Z,0
2016-11-03T04:56:44.574Z,0
2016-11-03T04:57:25.212Z,0
2016-11-03T04:58:05.863Z,0
2016-11-03T04:58:46.554Z,0
2016-11-03T04:59:27.223Z,0
2016-11-03T05:00:07.936Z,0
2016-11-03T05:00:48.569Z,0
2016-11-03T05:01:29.263Z,0
2016-11-03T05:02:09.953Z,0
2016-11-03T05:02:50.606Z,0
2016-11-03T05:03:31.283Z,0
2016-11-03T05:04:12.029Z,0
2016-11-03T05:04:52.682Z,0
2016-11-03T05:05:33.415Z,0
2016-11-03T05:06:14.122Z,0
2016-11-03T05:06:54.811Z,0
2016-11-03T05:07:35.476Z,0
2016-11-03T05:08:16.153Z,0
2016-11-03T05:08:56.884Z,0
2016-11-03T05:09:37.551Z,0
2016-11-03T05:10:18.224Z,0
2016-11-03T05:10:58.865Z,0
2016-11-03T05:11:39.586Z,0
2016-11-03T05:12:20.263Z,0
2016-11-03T05:13:00.969Z,0
2016-11-03T05:13:41.643Z,0
2016-11-03T05:14:22.278Z,0
2016-11-03T05:15:02.952Z,0
2016-11-03T05:15:43.593Z,0
2016-11-03T05:16:24.268Z,0
2016-11-03T05:17:04.981Z,0
2016-11-03T05:17:45.621Z,0
2016-11-03T05:18:26.333Z,0
2016-11-03T05:19:07.000Z,0
2016-11-03T05:19:47.696Z,0
2016-11-03T05:20:28.411Z,0
2016-11-03T05:21:09.105Z,0
2016-11-03T05:21:49.818Z,0
2016-11-03T05:22:30.508Z,0
2016-11-03T05:23:11.212Z,0
2016-11-03T05:23:51.858Z,0
2016-11-03T05:24:32.561Z,0
2016-11-03T05:25:13.262Z,0
2016-11-03T05:25:53.917Z,0
2016-11-03T05:26:34.622Z,0
2016-11-03T05:27:15.331Z,0
2016-11-03T05:27:56.033Z,0
2016-11-03T05:28:36.737Z,0
2016-11-03T05:29:17.442Z,0
2016-11-03T05:29:58.127Z,0
2016-11-03T05:30:38.859Z,0
2016-11-03T05:31:19.573Z,0
2016-11-03T05:32:00.217Z,0
2016-11-03T05:32:40.966Z,0
2016-11-03T05:33:21.638Z,0
2016-11-03T05:34:02.332Z,0
2016-11-03T05:34:42.989Z,0
2016-11-03T05:35:23.721Z,0
2016-11-03T05:36:04.326Z,0
2016-11-03T05:36:45.005Z,0
2016-11-03T05:37:25.677Z,0
2016-11-03T05:38:06.422Z,0
2016-11-03T05:38:47.098Z,0
2016-11-03T05:39:27.856Z,0
2016-11-03T05:40:08.533Z,0
2016-11-03T05:40:49.209Z,0
2016-11-03T05:41:29.898Z,0
2016-11-03T05:42:10.559Z,0
2016-11-03T05:42:51.263Z,0
2016-11-03T05:43:31.954Z,0
2016-11-03T05:44:12.607Z,0
2016-11-03T05:44:53.294Z,0
2016-11-03T05:45:33.985Z,0
2016-11-03T05:46:14.714Z,0
2016-11-03T05:46:55.391Z,0
2016-11-03T05:47:36.095Z,0
2016-11-03T05:48:16.780Z,0
2016-11-03T05:48:57.487Z,0
2016-11-03T05:49:38.148Z,0
2016-11-03T05:50:18.823Z,0
2016-11-03T05:50:59.516Z,0
2016-11-03T05:51:40.253Z,0
2016-11-03T05:52:20.944Z,0
2016-11-03T05:53:01.671Z,0
2016-11-03T05:53:42.349Z,0
2016-11-03T05:54:23.025Z,0
2016-11-03T05:55:03.699Z,0
2016-11-03T05:55:44.402Z,0
2016-11-03T05:56:25.077Z,0
2016-11-03T05:57:05.763Z,0
2016-11-03T05:57:46.460Z,0
2016-11-03T05:58:27.100Z,0
2016-11-03T05:59:07.792Z,0
2016-11-03T05:59:48.524Z,0
2016-11-03T06:00:29.185Z,0
2016-11-03T06:01:09.840Z,0
2016-11-03T06:01:50.515Z,0
2016-11-03T06:02:31.197Z,0
2016-11-03T06:03:11.944Z,0
2016-11-03T06:03:52.638Z,0
2016-11-03T06:04:33.300Z,0
2016-11-03T06:05:14.014Z,0
2016-11-03T06:05:54.716Z,0
2016-11-03T06:06:35.353Z,0
2016-11-03T06:07:16.020Z,0
2016-11-03T06:07:56.692Z,0
2016-11-03T06:08:37.386Z,0
2016-11-03T06:09:18.064Z,0
2016-11-03T06:09:58.759Z,0
2016-11-03T06:10:39.447Z,0
2016-11-03T06:11:20.109Z,0
2016-11-03T06:12:00.806Z,0
2016-11-03T06:12:41.505Z,0
2016-11-03T06:13:22.169Z,0
2016-11-03T06:14:02.864Z,0
2016-11-03T06:14:43.560Z,0
2016-11-03T06:15:24.264Z,0
2016-11-03T06:16:04.923Z,0
2016-11-03T06:16:45.656Z,0
2016-11-03T06:17:26.347Z,0
2016-11-03T06:18:07.027Z,0
2016-11-03T06:18:47.707Z,0
2016-11-03T06:19:28.362Z,0
2016-11-03T06:20:09.042Z,0
2016-11-03T06:20:49.665Z,0
2016-11-03T06:21:30.338Z,0
2016-11-03T06:22:11.001Z,0
2016-11-03T06:22:51.691Z,0
2016-11-03T06:23:32.366Z,0
2016-11-03T06:24:13.048Z,0
2016-11-03T06:24:53.766Z,4
2016-11-03T06:25:34.419Z,4
2016-11-03T06:26:15.083Z,4
2016-11-03T06:26:55.766Z,0
2016-11-03T06:27:36.433Z,0
2016-11-03T06:28:17.133Z,0
2016-11-03T06:28:57.813Z,0
2016-11-03T06:29:38.512Z,0
2016-11-03T06:30:19.268Z,0
2016-11-03T06:30:59.971Z,0
2016-11-03T06:31:40.648Z,4
2016-11-03T06:32:21.333Z,4
2016-11-03T06:33:02.029Z,4
2016-11-03T06:33:42.678Z,4
2016-11-03T06:34:23.357Z,0
2016-11-03T06:35:04.039Z,4
2016-11-03T06:35:44.697Z,4
2016-11-03T06:36:25.319Z,4
2016-11-03T06:37:06.009Z,4
2016-11-03T06:37:46.710Z,4
2016-11-03T06:38:27.420Z,4
2016-11-03T06:39:08.125Z,4
2016-11-03T06:39:48.802Z,8
2016-11-03T06:40:29.556Z,4
2016-11-03T06:41:10.210Z,4
2016-11-03T06:41:50.889Z,8
2016-11-03T06:42:31.540Z,4
2016-11-03T06:43:12.226Z,8
2016-11-03T06:43:52.903Z,4
2016-11-03T06:44:33.577Z,8
2016-11-03T06:45:14.306Z,8
2016-11-03T06:45:54.917Z,8
2016-11-03T06:46:35.577Z,4
2016-11-03T06:47:16.237Z,8
2016-11-03T06:47:56.898Z,8
2016-11-03T06:48:37.565Z,8
2016-11-03T06:49:18.203Z,8
2016-11-03T06:49:58.891Z,12
2016-11-03T06:50:39.540Z,8
2016-11-03T06:51:20.261Z,12
2016-11-03T06:52:00.979Z,8
2016-11-03T06:52:41.662Z,12
2016-11-03T06:53:22.402Z,12
2016-11-03T06:54:03.096Z,8
2016-11-03T06:54:43.817Z,12
2016-11-03T06:55:24.466Z,12
2016-11-03T06:56:05.134Z,12
2016-11-03T06:56:45.823Z,12
2016-11-03T06:57:26.485Z,12
2016-11-03T06:58:07.164Z,16
2016-11-03T06:58:47.863Z,16
2016-11-03T06:59:28.525Z,20
2016-11-03T07:00:09.214Z,20
2016-11-03T07:00:49.893Z,20
2016-11-03T07:01:30.611Z,20
2016-11-03T07:02:11.377Z,20
2016-11-03T07:02:52.083Z,20
2016-11-03T07:03:32.745Z,24
2016-11-03T07:04:13.465Z,20
2016-11-03T07:04:54.144Z,24
2016-11-03T07:05:34.862Z,24
2016-11-03T07:06:15.539Z,24
2016-11-03T07:06:56.253Z,28
2016-11-03T07:07:36.928Z,24
2016-11-03T07:08:17.619Z,28
2016-11-03T07:08:58.310Z,24
2016-11-03T07:09:39.002Z,28
2016-11-03T07:10:19.647Z,28
2016-11-03T07:11:00.341Z,28
2016-11-03T07:11:41.047Z,28
2016-11-03T07:12:21.747Z,32
2016-11-03T07:13:02.455Z,28
2016-11-03T07:13:43.076Z,32
2016-11-03T07:14:23.748Z,32
2016-11-03T07:15:04.415Z,32
2016-11-03T07:15:45.088Z,32
2016-11-03T07:16:25.771Z,32
2016-11-03T07:17:06.460Z,36
2016-11-03T07:17:47.149Z,36
2016-11-03T07:18:27.838Z,32
2016-11-03T07:19:08.571Z,36
2016-11-03T07:19:49.265Z,36
2016-11-03T07:20:29.963Z,36
2016-11-03T07:21:10.690Z,548
2016-11-03T07:21:51.391Z,672
2016-11-03T07:22:32.097Z,716
2016-11-03T07:23:12.828Z,736
2016-11-03T07:23:53.462Z,744
2016-11-03T07:24:34.172Z,748
2016-11-03T07:25:14.839Z,748
2016-11-03T07:25:55.596Z,752
2016-11-03T07:26:36.252Z,752
2016-11-03T07:27:16.941Z,752
2016-11-03T07:27:57.652Z,756
2016-11-03T07:28:38.330Z,752
2016-11-03T07:29:19.011Z,756
2016-11-03T07:29:59.698Z,756
2016-11-03T07:30:40.364Z,756
2016-11-03T07:31:21.063Z,756
2016-11-03T07:32:01.800Z,760
2016-11-03T07:32:42.491Z,760
2016-11-03T07:33:23.200Z,760
2016-11-03T07:34:03.922Z,764
2016-11-03T07:34:44.596Z,764
2016-11-03T07:35:25.282Z,764
2016-11-03T07:36:05.949Z,764
2016-11-03T07:36:46.586Z,764
2016-11-03T07:37:27.301Z,764
2016-11-03T07:38:07.975Z,768
2016-11-03T07:38:48.687Z,768
2016-11-03T07:39:29.409Z,764
2016-11-03T07:40:10.129Z,768
2016-11-03T07:40:50.803Z,768
2016-11-03T07:41:31.495Z,772
2016-11-03T07:42:12.211Z,768
2016-11-03T07:42:52.871Z,768
2016-11-03T07:43:33.601Z,768
2016-11-03T07:44:14.284Z,772
2016-11-03T07:44:54.979Z,768
2016-11-03T07:45:35.677Z,772
2016-11-03T07:46:16.402Z,768
2016-11-03T07:46:57.063Z,768
2016-11-03T07:47:37.759Z,772
2016-11-03T07:48:18.461Z,772
2016-11-03T07:48:59.150Z,772
2016-11-03T07:49:39.831Z,772
2016-11-03T07:50:20.543Z,768
2016-11-03T07:51:01.173Z,772
2016-11-03T07:51:41.895Z,772
2016-11-03T07:52:22.584Z,772
2016-11-03T07:53:03.342Z,772
2016-11-03T07:53:43.988Z,772
2016-11-03T07:54:24.668Z,772
2016-11-03T07:55:05.340Z,776
2016-11-03T07:55:46.014Z,772
2016-11-03T07:56:26.708Z,772
2016-11-03T07:57:07.420Z,772
2016-11-03T07:57:48.072Z,772
2016-11-03T07:58:28.799Z,772
2016-11-03T07:59:09.510Z,772
2016-11-03T07:59:50.205Z,776
2016-11-03T08:00:30.891Z,776
2016-11-03T08:01:11.598Z,772
2016-11-03T08:01:53.006Z,776
2016-11-03T08:02:33.076Z,776
2016-11-03T08:03:13.772Z,776
2016-11-03T08:03:54.478Z,776
2016-11-03T08:04:35.171Z,776
2016-11-03T08:05:15.878Z,776
2016-11-03T08:05:56.545Z,776
2016-11-03T08:06:37.201Z,772
2016-11-03T08:07:17.872Z,776
2016-11-03T08:07:58.540Z,772
2016-11-03T08:08:39.235Z,776
2016-11-03T08:09:19.950Z,776
2016-11-03T08:10:00.613Z,776
2016-11-03T08:10:41.336Z,776
2016-11-03T08:11:22.079Z,776
2016-11-03T08:12:02.827Z,780
2016-11-03T08:12:43.565Z,776
2016-11-03T08:13:24.277Z,780
2016-11-03T08:14:04.969Z,776
2016-11-03T08:14:45.672Z,780
2016-11-03T08:15:26.354Z,780
2016-11-03T08:16:07.008Z,776
2016-11-03T08:16:47.716Z,772
2016-11-03T08:17:28.388Z,776
2016-11-03T08:18:09.102Z,780
2016-11-03T08:18:49.805Z,780
2016-11-03T08:19:31.017Z,776
2016-11-03T08:20:11.179Z,780
2016-11-03T08:20:51.870Z,776
2016-11-03T08:21:32.545Z,776
2016-11-03T08:22:13.226Z,780
2016-11-03T08:22:53.934Z,780
2016-11-03T08:23:34.680Z,776
2016-11-03T08:24:15.433Z,780
2016-11-03T08:24:56.174Z,780
2016-11-03T08:25:36.921Z,780
2016-11-03T08:26:17.629Z,780
2016-11-03T08:26:58.326Z,780
2016-11-03T08:27:39.051Z,776
2016-11-03T08:28:19.794Z,776
2016-11-03T08:29:00.845Z,780
2016-11-03T08:29:41.489Z,780
2016-11-03T08:30:22.246Z,780
2016-11-03T08:31:03.035Z,780
2016-11-03T08:31:43.781Z,780
2016-11-03T08:32:24.430Z,780
2016-11-03T08:33:05.127Z,780
2016-11-03T08:33:45.837Z,780
2016-11-03T08:34:26.569Z,780
2016-11-03T08:35:07.298Z,780
2016-11-03T08:35:48.036Z,780
2016-11-03T08:36:28.723Z,780
2016-11-03T08:37:09.385Z,784
2016-11-03T08:37:50.086Z,780
2016-11-03T08:38:30.741Z,784
2016-11-03T08:39:11.441Z,784
2016-11-03T08:39:52.171Z,784
2016-11-03T08:40:32.913Z,784
2016-11-03T08:41:13.574Z,784
2016-11-03T08:41:54.272Z,784
2016-11-03T08:42:34.974Z,784
2016-11-03T08:43:15.687Z,784
2016-11-03T08:43:57.014Z,784
2016-11-03T08:44:37.080Z,784
2016-11-03T08:45:17.763Z,784
2016-11-03T08:45:58.455Z,780
2016-11-03T08:46:39.148Z,784
2016-11-03T08:47:19.803Z,784
2016-11-03T08:48:00.456Z,784
2016-11-03T08:48:41.123Z,784
2016-11-03T08:49:21.840Z,784
2016-11-03T08:50:02.501Z,784
2016-11-03T08:50:43.215Z,784
2016-11-03T08:51:23.908Z,788
2016-11-03T08:52:05.212Z,784
2016-11-03T08:52:45.891Z,784
2016-11-03T08:53:26.612Z,784
2016-11-03T08:54:07.319Z,784
2016-11-03T08:54:48.078Z,784
2016-11-03T08:55:28.880Z,784
2016-11-03T08:56:09.560Z,784
2016-11-03T08:56:50.268Z,780
2016-11-03T08:57:31.569Z,784
2016-11-03T08:58:12.209Z,784
2016-11-03T08:58:52.865Z,776
2016-11-03T08:59:33.548Z,780
2016-11-03T09:00:14.331Z,784
2016-11-03T09:00:55.034Z,784
2016-11-03T09:01:35.748Z,784
2016-11-03T09:02:16.422Z,784
2016-11-03T09:02:57.136Z,784
2016-11-03T09:03:37.828Z,784
2016-11-03T09:04:18.531Z,780
2016-11-03T09:04:59.257Z,784
2016-11-03T09:05:39.943Z,784
2016-11-03T09:06:20.660Z,784
2016-11-03T09:07:01.308Z,784
2016-11-03T09:07:42.032Z,784
2016-11-03T09:08:22.760Z,780
2016-11-03T09:09:03.458Z,784
2016-11-03T09:09:44.185Z,784
2016-11-03T09:10:24.908Z,788
2016-11-03T09:11:05.609Z,784
2016-11-03T09:11:46.319Z,788
2016-11-03T09:12:27.023Z,788
2016-11-03T09:13:07.771Z,780
2016-11-03T09:13:48.392Z,780
2016-11-03T09:14:29.099Z,780
2016-11-03T09:15:09.734Z,784
2016-11-03T09:15:50.460Z,784
2016-11-03T09:16:31.166Z,784
2016-11-03T09:17:11.866Z,780
2016-11-03T09:17:52.589Z,780
2016-11-03T09:18:33.295Z,776
2016-11-03T09:19:14.006Z,780
2016-11-03T09:19:54.638Z,780
2016-11-03T09:20:35.368Z,776
2016-11-03T09:21:16.067Z,776
2016-11-03T09:21:56.740Z,776
2016-11-03T09:22:37.405Z,776
2016-11-03T09:23:18.138Z,780
2016-11-03T09:23:58.855Z,780
2016-11-03T09:24:39.577Z,780
2016-11-03T09:25:20.272Z,776
2016-11-03T09:26:00.936Z,776
2016-11-03T09:26:41.599Z,780
2016-11-03T09:27:22.303Z,780
2016-11-03T09:28:03.022Z,776
2016-11-03T09:28:43.688Z,784
2016-11-03T09:29:24.411Z,784
2016-11-03T09:30:05.109Z,780
2016-11-03T09:30:45.811Z,768
2016-11-03T09:31:26.470Z,768
2016-11-03T09:32:08.054Z,772
2016-11-03T09:32:47.884Z,772
2016-11-03T09:33:28.523Z,768
2016-11-03T09:34:09.209Z,768
2016-11-03T09:34:49.949Z,772
2016-11-03T09:35:30.674Z,780
2016-11-03T09:36:11.373Z,780
2016-11-03T09:36:52.079Z,780
2016-11-03T09:37:33.541Z,780
2016-11-03T09:38:13.458Z,784
2016-11-03T09:38:54.195Z,784
2016-11-03T09:39:34.848Z,784
2016-11-03T09:40:15.564Z,784
2016-11-03T09:40:57.204Z,788
2016-11-03T09:41:37.933Z,784
2016-11-03T09:42:18.615Z,792
2016-11-03T09:42:59.308Z,788
2016-11-03T09:43:40.043Z,788
2016-11-03T09:44:20.759Z,792
2016-11-03T09:45:01.485Z,792
2016-11-03T09:45:42.229Z,784
2016-11-03T09:46:22.943Z,788
2016-11-03T09:47:03.627Z,788
2016-11-03T09:47:44.387Z,788
2016-11-03T09:48:25.115Z,792
2016-11-03T09:49:05.846Z,792
2016-11-03T09:49:47.557Z,788